createdAt,value
2022-12-15T00:01:37.000Z,97201
2022-12-15T00:03:01.000Z,97198
2022-12-15T00:05:05.000Z,97201
2022-12-15T00:06:30.000Z,97202
2022-12-15T00:08:33.000Z,97200
2022-12-15T00:09:58.000Z,97201
2022-12-15T00:12:01.000Z,97205
2022-12-15T00:13:25.000Z,97209
2022-12-15T00:15:29.000Z,97215
2022-12-15T00:16:53.000Z,97215
2022-12-15T00:18:57.000Z,97217
2022-12-15T00:20:21.000Z,97217
2022-12-15T00:22:24.000Z,97211
2022-12-15T00:23:49.000Z,97208
2022-12-15T00:25:52.000Z,97207
2022-12-15T00:27:17.000Z,97209
2022-12-15T00:29:20.000Z,97206
2022-12-15T00:30:45.000Z,97205
2022-12-15T00:32:53.000Z,97201
2022-12-15T00:35:42.000Z,97201
2022-12-15T00:37:07.000Z,97203
2022-12-15T00:39:10.000Z,97209
2022-12-15T00:40:34.000Z,97213
2022-12-15T00:42:38.000Z,97214
2022-12-15T00:44:02.000Z,97221
2022-12-15T00:46:06.000Z,97219
2022-12-15T00:47:30.000Z,97221
2022-12-15T00:49:34.000Z,97225
2022-12-15T00:50:58.000Z,97222
2022-12-15T00:53:01.000Z,97221
2022-12-15T00:54:26.000Z,97220
2022-12-15T00:56:29.000Z,97223
2022-12-15T00:57:54.000Z,97225
2022-12-15T00:59:57.000Z,97226
2022-12-15T01:01:22.000Z,97229
2022-12-15T01:03:25.000Z,97229
2022-12-15T01:04:50.000Z,97234
2022-12-15T01:06:54.000Z,97235
2022-12-15T01:08:18.000Z,97235
2022-12-15T01:10:21.000Z,97240
2022-12-15T01:13:10.000Z,97238
2022-12-15T01:14:35.000Z,97240
2022-12-15T01:16:38.000Z,97239
2022-12-15T01:18:03.000Z,97247
2022-12-15T01:20:06.000Z,97253
2022-12-15T01:21:31.000Z,97254
2022-12-15T01:23:34.000Z,97260
2022-12-15T01:24:59.000Z,97256
2022-12-15T01:27:02.000Z,97260
2022-12-15T01:28:27.000Z,97256
2022-12-15T01:30:30.000Z,97255
2022-12-15T01:31:54.000Z,97258
2022-12-15T01:33:58.000Z,97259
2022-12-15T01:35:22.000Z,97259
2022-12-15T01:37:26.000Z,97262
2022-12-15T01:38:51.000Z,97267
2022-12-15T01:40:57.000Z,97268
2022-12-15T01:42:22.000Z,97272
2022-12-15T01:44:25.000Z,97274
2022-12-15T01:45:50.000Z,97280
2022-12-15T01:47:53.000Z,97280
2022-12-15T01:50:42.000Z,97283
2022-12-15T01:52:07.000Z,97286
2022-12-15T01:54:10.000Z,97286
2022-12-15T01:55:35.000Z,97291
2022-12-15T01:57:38.000Z,97291
2022-12-15T01:59:02.000Z,97292
2022-12-15T02:01:06.000Z,97289
2022-12-15T02:02:31.000Z,97295
2022-12-15T02:04:41.000Z,97299
2022-12-15T02:06:05.000Z,97301
2022-12-15T02:08:09.000Z,97305
2022-12-15T02:09:33.000Z,97307
2022-12-15T02:11:37.000Z,97313
2022-12-15T02:13:01.000Z,97318
2022-12-15T02:15:05.000Z,97321
2022-12-15T02:16:29.000Z,97323
2022-12-15T02:18:33.000Z,97324
2022-12-15T02:19:57.000Z,97325
2022-12-15T02:22:00.000Z,97326
2022-12-15T02:23:25.000Z,97325
2022-12-15T02:25:28.000Z,97328
2022-12-15T02:28:17.000Z,97331
2022-12-15T02:29:42.000Z,97330
2022-12-15T02:31:45.000Z,97332
2022-12-15T02:33:14.000Z,97332
2022-12-15T02:35:17.000Z,97334
2022-12-15T02:36:42.000Z,97338
2022-12-15T02:38:45.000Z,97340
2022-12-15T02:40:10.000Z,97340
2022-12-15T02:42:13.000Z,97345
2022-12-15T02:43:37.000Z,97345
2022-12-15T02:45:41.000Z,97352
2022-12-15T02:47:05.000Z,97357
2022-12-15T02:49:09.000Z,97359
2022-12-15T02:50:33.000Z,97362
2022-12-15T02:52:37.000Z,97366
2022-12-15T02:54:01.000Z,97369
2022-12-15T02:56:05.000Z,97374
2022-12-15T02:57:29.000Z,97376
2022-12-15T02:59:33.000Z,97370
2022-12-15T03:00:57.000Z,97371
2022-12-15T03:03:00.000Z,97363
2022-12-15T03:05:50.000Z,97360
2022-12-15T03:07:14.000Z,97360
2022-12-15T03:09:18.000Z,97358
2022-12-15T03:10:42.000Z,97363
2022-12-15T03:12:46.000Z,97360
2022-12-15T03:14:10.000Z,97362
2022-12-15T03:16:14.000Z,97361
2022-12-15T03:17:38.000Z,97356
2022-12-15T03:19:41.000Z,97364
2022-12-15T03:21:06.000Z,97363
2022-12-15T03:23:09.000Z,97365
2022-12-15T03:24:34.000Z,97365
2022-12-15T03:26:37.000Z,97364
2022-12-15T03:28:02.000Z,97366
2022-12-15T03:30:05.000Z,97368
2022-12-15T03:31:29.000Z,97371
2022-12-15T03:33:33.000Z,97373
2022-12-15T03:34:58.000Z,97374
2022-12-15T03:37:02.000Z,97371
2022-12-15T03:38:26.000Z,97375
2022-12-15T03:40:30.000Z,97368
2022-12-15T03:43:19.000Z,97371
2022-12-15T03:44:43.000Z,97372
2022-12-15T03:46:47.000Z,97376
2022-12-15T03:48:11.000Z,97377
2022-12-15T03:50:14.000Z,97375
2022-12-15T03:51:39.000Z,97376
2022-12-15T03:53:42.000Z,97372
2022-12-15T03:55:07.000Z,97375
2022-12-15T03:57:10.000Z,97374
2022-12-15T03:58:35.000Z,97378
2022-12-15T04:00:38.000Z,97381
2022-12-15T04:02:03.000Z,97389
2022-12-15T04:04:07.000Z,97393
2022-12-15T04:05:31.000Z,97397
2022-12-15T04:07:34.000Z,97394
2022-12-15T04:08:59.000Z,97399
2022-12-15T04:11:02.000Z,97397
2022-12-15T04:12:27.000Z,97394
2022-12-15T04:14:30.000Z,97396
2022-12-15T04:15:54.000Z,97396
2022-12-15T04:17:58.000Z,97393
2022-12-15T04:20:47.000Z,97394
2022-12-15T04:22:14.000Z,97393
2022-12-15T04:24:21.000Z,97391
2022-12-15T04:25:45.000Z,97396
2022-12-15T04:27:49.000Z,97400
2022-12-15T04:29:13.000Z,97396
2022-12-15T04:31:16.000Z,97399
2022-12-15T04:32:41.000Z,97395
2022-12-15T04:34:44.000Z,97392
2022-12-15T04:36:09.000Z,97396
2022-12-15T04:38:12.000Z,97396
2022-12-15T04:39:37.000Z,97400
2022-12-15T04:41:40.000Z,97404
2022-12-15T04:43:04.000Z,97407
2022-12-15T04:45:08.000Z,97405
2022-12-15T04:46:32.000Z,97409
2022-12-15T04:48:36.000Z,97412
2022-12-15T04:50:00.000Z,97411
2022-12-15T04:52:03.000Z,97413
2022-12-15T04:53:28.000Z,97413
2022-12-15T04:55:32.000Z,97417
2022-12-15T04:58:21.000Z,97418
2022-12-15T04:59:46.000Z,97417
2022-12-15T05:01:49.000Z,97415
2022-12-15T05:03:14.000Z,97417
2022-12-15T05:05:21.000Z,97414
2022-12-15T05:06:46.000Z,97417
2022-12-15T05:08:49.000Z,97420
2022-12-15T05:10:14.000Z,97420
2022-12-15T05:12:18.000Z,97424
2022-12-15T05:13:43.000Z,97427
2022-12-15T05:15:46.000Z,97422
2022-12-15T05:17:11.000Z,97422
2022-12-15T05:19:14.000Z,97417
2022-12-15T05:20:39.000Z,97422
2022-12-15T05:22:42.000Z,97425
2022-12-15T05:24:07.000Z,97428
2022-12-15T05:26:10.000Z,97437
2022-12-15T05:27:34.000Z,97440
2022-12-15T05:29:38.000Z,97441
2022-12-15T05:31:02.000Z,97442
2022-12-15T05:33:06.000Z,97444
2022-12-15T05:35:55.000Z,97454
2022-12-15T05:37:20.000Z,97458
2022-12-15T05:39:23.000Z,97460
2022-12-15T05:40:47.000Z,97461
2022-12-15T05:42:51.000Z,97464
2022-12-15T05:44:15.000Z,97459
2022-12-15T05:46:19.000Z,97465
2022-12-15T05:47:43.000Z,97468
2022-12-15T05:49:47.000Z,97474
2022-12-15T05:51:11.000Z,97479
2022-12-15T05:53:14.000Z,97479
2022-12-15T05:54:39.000Z,97484
2022-12-15T05:56:42.000Z,97486
2022-12-15T05:58:07.000Z,97486
2022-12-15T06:00:10.000Z,97487
2022-12-15T06:01:35.000Z,97492
2022-12-15T06:03:38.000Z,97494
2022-12-15T06:05:03.000Z,97489
2022-12-15T06:07:06.000Z,97488
2022-12-15T06:08:31.000Z,97487
2022-12-15T06:10:34.000Z,97490
2022-12-15T06:13:23.000Z,97494
2022-12-15T06:14:48.000Z,97493
2022-12-15T06:16:53.000Z,97500
2022-12-15T06:18:18.000Z,97502
2022-12-15T06:20:22.000Z,97498
2022-12-15T06:21:46.000Z,97498
2022-12-15T06:23:49.000Z,97501
2022-12-15T06:25:14.000Z,97498
2022-12-15T06:27:17.000Z,97496
2022-12-15T06:28:42.000Z,97499
2022-12-15T06:30:45.000Z,97505
2022-12-15T06:32:10.000Z,97509
2022-12-15T06:34:13.000Z,97513
2022-12-15T06:35:37.000Z,97514
2022-12-15T06:37:41.000Z,97520
2022-12-15T06:39:05.000Z,97519
2022-12-15T06:41:09.000Z,97516
2022-12-15T06:42:33.000Z,97522
2022-12-15T06:44:36.000Z,97526
2022-12-15T06:46:01.000Z,97528
2022-12-15T06:48:04.000Z,97521
2022-12-15T06:50:54.000Z,97522
2022-12-15T06:52:18.000Z,97526
2022-12-15T06:54:21.000Z,97526
2022-12-15T06:55:46.000Z,97525
2022-12-15T06:57:49.000Z,97518
2022-12-15T06:59:14.000Z,97522
2022-12-15T07:01:17.000Z,97515
2022-12-15T07:02:42.000Z,97514
2022-12-15T07:04:46.000Z,97513
2022-12-15T07:06:10.000Z,97515
2022-12-15T07:08:14.000Z,97511
2022-12-15T07:09:38.000Z,97516
2022-12-15T07:11:41.000Z,97522
2022-12-15T07:13:06.000Z,97522
2022-12-15T07:15:09.000Z,97529
2022-12-15T07:16:34.000Z,97535
2022-12-15T07:18:37.000Z,97536
2022-12-15T07:20:02.000Z,97541
2022-12-15T07:22:05.000Z,97543
2022-12-15T07:23:29.000Z,97542
2022-12-15T07:25:57.000Z,97549
2022-12-15T07:28:47.000Z,97555
2022-12-15T07:30:11.000Z,97554
2022-12-15T07:32:14.000Z,97560
2022-12-15T07:33:39.000Z,97559
2022-12-15T07:35:42.000Z,97565
2022-12-15T07:37:07.000Z,97566
2022-12-15T07:39:10.000Z,97569
2022-12-15T07:40:34.000Z,97570
2022-12-15T07:42:38.000Z,97569
2022-12-15T07:44:02.000Z,97570
2022-12-15T07:46:06.000Z,97569
2022-12-15T07:47:30.000Z,97559
2022-12-15T07:49:34.000Z,97562
2022-12-15T07:50:58.000Z,97557
2022-12-15T07:53:13.000Z,97563
2022-12-15T07:54:37.000Z,97569
2022-12-15T07:56:41.000Z,97568
2022-12-15T07:58:05.000Z,97568
2022-12-15T08:00:09.000Z,97568
2022-12-15T08:01:33.000Z,97569
2022-12-15T08:03:37.000Z,97570
2022-12-15T08:06:27.000Z,97574
2022-12-15T08:07:51.000Z,97575
2022-12-15T08:09:55.000Z,97584
2022-12-15T08:11:19.000Z,97583
2022-12-15T08:13:23.000Z,97584
2022-12-15T08:15:24.000Z,97578
2022-12-15T08:17:28.000Z,97579
2022-12-15T08:18:52.000Z,97585
2022-12-15T08:20:56.000Z,97587
2022-12-15T08:22:20.000Z,97587
2022-12-15T08:24:24.000Z,97582
2022-12-15T08:25:48.000Z,97583
2022-12-15T08:27:51.000Z,97585
2022-12-15T08:29:16.000Z,97589
2022-12-15T08:31:53.000Z,97591
2022-12-15T08:33:18.000Z,97593
2022-12-15T08:35:21.000Z,97590
2022-12-15T08:37:19.000Z,97588
2022-12-15T08:39:23.000Z,97585
2022-12-15T08:40:47.000Z,97592
2022-12-15T08:42:51.000Z,97592
2022-12-15T08:45:40.000Z,97590
2022-12-15T08:47:04.000Z,97593
2022-12-15T08:49:08.000Z,97592
2022-12-15T08:50:32.000Z,97591
2022-12-15T08:52:35.000Z,97592
2022-12-15T08:54:00.000Z,97594
2022-12-15T08:56:03.000Z,97591
2022-12-15T08:57:28.000Z,97590
2022-12-15T08:59:31.000Z,97594
2022-12-15T09:00:56.000Z,97595
2022-12-15T09:02:59.000Z,97594
2022-12-15T09:04:24.000Z,97595
2022-12-15T09:06:27.000Z,97602
2022-12-15T09:07:52.000Z,97601
2022-12-15T09:09:55.000Z,97607
2022-12-15T09:11:20.000Z,97612
2022-12-15T09:13:23.000Z,97614
2022-12-15T09:14:48.000Z,97612
2022-12-15T09:16:51.000Z,97616
2022-12-15T09:18:16.000Z,97620
2022-12-15T09:20:19.000Z,97623
2022-12-15T09:23:08.000Z,97625
2022-12-15T09:24:33.000Z,97625
2022-12-15T09:26:38.000Z,97629
2022-12-15T09:28:03.000Z,97628
2022-12-15T09:30:06.000Z,97630
2022-12-15T09:31:31.000Z,97628
2022-12-15T09:33:34.000Z,97632
2022-12-15T09:34:59.000Z,97629
2022-12-15T09:37:03.000Z,97634
2022-12-15T09:38:27.000Z,97638
2022-12-15T09:40:31.000Z,97637
2022-12-15T09:41:55.000Z,97636
2022-12-15T09:43:58.000Z,97636
2022-12-15T09:45:23.000Z,97638
2022-12-15T09:47:26.000Z,97640
2022-12-15T09:48:51.000Z,97636
2022-12-15T09:50:54.000Z,97640
2022-12-15T09:52:19.000Z,97645
2022-12-15T09:54:22.000Z,97644
2022-12-15T09:55:47.000Z,97644
2022-12-15T09:57:53.000Z,97642
2022-12-15T10:00:43.000Z,97639
2022-12-15T10:02:10.000Z,97639
2022-12-15T10:04:14.000Z,97636
2022-12-15T10:05:38.000Z,97640
2022-12-15T10:08:18.000Z,97640
2022-12-15T10:09:42.000Z,97634
2022-12-15T10:11:46.000Z,97634
2022-12-15T10:13:15.000Z,97633
2022-12-15T10:15:18.000Z,97636
2022-12-15T10:16:42.000Z,97641
2022-12-15T10:18:46.000Z,97642
2022-12-15T10:20:14.000Z,97637
2022-12-15T10:22:18.000Z,97636
2022-12-15T10:23:42.000Z,97634
2022-12-15T10:25:46.000Z,97635
2022-12-15T10:27:15.000Z,97632
2022-12-15T10:29:18.000Z,97629
2022-12-15T10:30:43.000Z,97632
2022-12-15T10:32:46.000Z,97633
2022-12-15T10:34:15.000Z,97633
2022-12-15T10:36:18.000Z,97634
2022-12-15T10:39:07.000Z,97635
2022-12-15T10:40:37.000Z,97634
2022-12-15T10:42:40.000Z,97631
2022-12-15T10:44:04.000Z,97632
2022-12-15T10:46:08.000Z,97630
2022-12-15T10:47:32.000Z,97632
2022-12-15T10:49:36.000Z,97630
2022-12-15T10:51:00.000Z,97629
2022-12-15T10:53:04.000Z,97622
2022-12-15T10:54:28.000Z,97620
2022-12-15T10:56:31.000Z,97622
2022-12-15T10:57:58.000Z,97622
2022-12-15T11:00:01.000Z,97622
2022-12-15T11:01:26.000Z,97619
2022-12-15T11:03:29.000Z,97623
2022-12-15T11:04:55.000Z,97621
2022-12-15T11:06:58.000Z,97625
2022-12-15T11:08:23.000Z,97621
2022-12-15T11:10:26.000Z,97619
2022-12-15T11:11:51.000Z,97621
2022-12-15T11:13:54.000Z,97614
2022-12-15T11:16:44.000Z,97615
2022-12-15T11:18:09.000Z,97615
2022-12-15T11:20:13.000Z,97611
2022-12-15T11:21:37.000Z,97612
2022-12-15T11:23:41.000Z,97610
2022-12-15T11:25:13.000Z,97606
2022-12-15T11:27:16.000Z,97606
2022-12-15T11:28:41.000Z,97609
2022-12-15T11:30:44.000Z,97608
2022-12-15T11:32:09.000Z,97607
2022-12-15T11:34:12.000Z,97604
2022-12-15T11:35:37.000Z,97604
2022-12-15T11:37:40.000Z,97607
2022-12-15T11:39:04.000Z,97607
2022-12-15T11:41:08.000Z,97608
2022-12-15T11:42:32.000Z,97603
2022-12-15T11:44:36.000Z,97601
2022-12-15T11:46:00.000Z,97596
2022-12-15T11:48:04.000Z,97592
2022-12-15T11:49:28.000Z,97586
2022-12-15T11:51:31.000Z,97584
2022-12-15T11:54:20.000Z,97581
2022-12-15T11:55:45.000Z,97580
2022-12-15T11:57:48.000Z,97574
2022-12-15T11:59:14.000Z,97567
2022-12-15T12:02:50.000Z,97563
2022-12-15T12:03:24.000Z,97561
2022-12-15T12:04:49.000Z,97559
2022-12-15T12:08:26.000Z,97559
2022-12-15T12:09:00.000Z,97561
2022-12-15T12:10:25.000Z,97555
2022-12-15T12:12:28.000Z,97555
2022-12-15T12:13:52.000Z,97554
2022-12-15T12:15:57.000Z,97553
2022-12-15T12:17:22.000Z,97552
2022-12-15T12:19:25.000Z,97547
2022-12-15T12:20:50.000Z,97550
2022-12-15T12:22:53.000Z,97551
2022-12-15T12:24:19.000Z,97550
2022-12-15T12:26:23.000Z,97541
2022-12-15T12:27:47.000Z,97542
2022-12-15T12:29:53.000Z,97541
2022-12-15T12:31:19.000Z,97537
2022-12-15T12:33:22.000Z,97539
2022-12-15T12:35:59.000Z,97533
2022-12-15T12:37:24.000Z,97527
2022-12-15T12:39:27.000Z,97518
2022-12-15T12:40:52.000Z,97516
2022-12-15T12:42:55.000Z,97517
2022-12-15T12:44:20.000Z,97516
2022-12-15T12:46:23.000Z,97518
2022-12-15T12:47:47.000Z,97515
2022-12-15T12:49:51.000Z,97512
2022-12-15T12:51:15.000Z,97512
2022-12-15T12:53:19.000Z,97515
2022-12-15T12:54:43.000Z,97523
2022-12-15T12:56:47.000Z,97522
2022-12-15T12:58:14.000Z,97523
2022-12-15T13:00:18.000Z,97519
2022-12-15T13:01:42.000Z,97520
2022-12-15T13:03:46.000Z,97519
2022-12-15T13:05:13.000Z,97521
2022-12-15T13:07:16.000Z,97519
2022-12-15T13:08:41.000Z,97521
2022-12-15T13:10:44.000Z,97519
2022-12-15T13:13:34.000Z,97515
2022-12-15T13:14:59.000Z,97508
2022-12-15T13:17:03.000Z,97500
2022-12-15T13:18:51.000Z,97494
2022-12-15T13:20:54.000Z,97492
2022-12-15T13:22:19.000Z,97490
2022-12-15T13:24:22.000Z,97492
2022-12-15T13:25:46.000Z,97490
2022-12-15T13:27:58.000Z,97490
2022-12-15T13:29:23.000Z,97491
2022-12-15T13:31:26.000Z,97494
2022-12-15T13:32:51.000Z,97492
2022-12-15T13:34:54.000Z,97486
2022-12-15T13:36:19.000Z,97486
2022-12-15T13:38:22.000Z,97485
2022-12-15T13:39:47.000Z,97488
2022-12-15T13:41:53.000Z,97485
2022-12-15T13:43:56.000Z,97484
2022-12-15T13:46:00.000Z,97478
2022-12-15T13:47:24.000Z,97478
2022-12-15T13:49:28.000Z,97471
2022-12-15T13:52:17.000Z,97469
2022-12-15T13:53:41.000Z,97463
2022-12-15T13:55:45.000Z,97460
2022-12-15T13:57:09.000Z,97462
2022-12-15T13:59:13.000Z,97465
2022-12-15T14:00:37.000Z,97467
2022-12-15T14:02:41.000Z,97471
2022-12-15T14:04:05.000Z,97466
2022-12-15T14:06:09.000Z,97463
2022-12-15T14:07:33.000Z,97457
2022-12-15T14:09:37.000Z,97457
2022-12-15T14:11:01.000Z,97453
2022-12-15T14:13:33.000Z,97460
2022-12-15T14:14:58.000Z,97460
2022-12-15T14:17:02.000Z,97455
2022-12-15T14:18:27.000Z,97453
2022-12-15T14:20:30.000Z,97452
2022-12-15T14:21:54.000Z,97452
2022-12-15T14:23:58.000Z,97450
2022-12-15T14:26:01.000Z,97448
2022-12-15T14:28:04.000Z,97443
2022-12-15T14:31:01.000Z,97451
2022-12-15T14:32:25.000Z,97456
2022-12-15T14:34:28.000Z,97455
2022-12-15T14:35:53.000Z,97452
2022-12-15T14:37:56.000Z,97448
2022-12-15T14:39:21.000Z,97440
2022-12-15T14:41:24.000Z,97434
2022-12-15T14:42:49.000Z,97432
2022-12-15T14:44:53.000Z,97436
2022-12-15T14:46:22.000Z,97435
2022-12-15T14:48:25.000Z,97433
2022-12-15T14:50:06.000Z,97432
2022-12-15T14:52:11.000Z,97426
2022-12-15T14:53:35.000Z,97429
2022-12-15T14:55:38.000Z,97432
2022-12-15T14:57:03.000Z,97433
2022-12-15T14:59:06.000Z,97435
2022-12-15T15:00:31.000Z,97437
2022-12-15T15:02:35.000Z,97445
2022-12-15T15:03:59.000Z,97446
2022-12-15T15:06:03.000Z,97450
2022-12-15T15:08:52.000Z,97458
2022-12-15T15:10:17.000Z,97459
2022-12-15T15:12:20.000Z,97466
2022-12-15T15:13:45.000Z,97471
2022-12-15T15:15:48.000Z,97475
2022-12-15T15:17:13.000Z,97475
2022-12-15T15:19:16.000Z,97475
2022-12-15T15:20:41.000Z,97475
2022-12-15T15:22:44.000Z,97474
2022-12-15T15:24:08.000Z,97474
2022-12-15T15:26:12.000Z,97476
2022-12-15T15:27:36.000Z,97478
2022-12-15T15:29:40.000Z,97482
2022-12-15T15:31:04.000Z,97485
2022-12-15T15:33:08.000Z,97485
2022-12-15T15:34:32.000Z,97490
2022-12-15T15:36:36.000Z,97495
2022-12-15T15:38:00.000Z,97494
2022-12-15T15:40:03.000Z,97497
2022-12-15T15:41:28.000Z,97502
2022-12-15T15:43:31.000Z,97498
2022-12-15T15:46:20.000Z,97504
2022-12-15T15:47:45.000Z,97509
2022-12-15T15:49:48.000Z,97512
2022-12-15T15:51:13.000Z,97516
2022-12-15T15:53:16.000Z,97515
2022-12-15T15:54:41.000Z,97516
2022-12-15T15:56:44.000Z,97515
2022-12-15T15:58:08.000Z,97518
2022-12-15T16:00:12.000Z,97523
2022-12-15T16:01:36.000Z,97523
2022-12-15T16:03:40.000Z,97523
2022-12-15T16:05:05.000Z,97522
2022-12-15T16:07:08.000Z,97527
2022-12-15T16:08:33.000Z,97530
2022-12-15T16:10:37.000Z,97533
2022-12-15T16:12:02.000Z,97536
2022-12-15T16:14:05.000Z,97538
2022-12-15T16:15:30.000Z,97538
2022-12-15T16:17:33.000Z,97532
2022-12-15T16:18:58.000Z,97532
2022-12-15T16:21:01.000Z,97530
2022-12-15T16:23:51.000Z,97527
2022-12-15T16:25:15.000Z,97526
2022-12-15T16:27:19.000Z,97531
2022-12-15T16:28:43.000Z,97531
2022-12-15T16:30:46.000Z,97535
2022-12-15T16:32:11.000Z,97535
2022-12-15T16:34:14.000Z,97539
2022-12-15T16:35:39.000Z,97540
2022-12-15T16:37:42.000Z,97536
2022-12-15T16:39:07.000Z,97530
2022-12-15T16:41:10.000Z,97532
2022-12-15T16:42:35.000Z,97533
2022-12-15T16:44:38.000Z,97537
2022-12-15T16:46:02.000Z,97537
2022-12-15T16:48:06.000Z,97532
2022-12-15T16:49:32.000Z,97534
2022-12-15T16:51:43.000Z,97537
2022-12-15T16:53:08.000Z,97530
2022-12-15T16:55:11.000Z,97535
2022-12-15T16:56:35.000Z,97534
2022-12-15T16:58:39.000Z,97532
2022-12-15T17:01:28.000Z,97532
2022-12-15T17:02:52.000Z,97531
2022-12-15T17:04:56.000Z,97523
2022-12-15T17:06:21.000Z,97520
2022-12-15T17:08:24.000Z,97521
2022-12-15T17:09:48.000Z,97519
2022-12-15T17:11:52.000Z,97520
2022-12-15T17:13:16.000Z,97519
2022-12-15T17:15:20.000Z,97516
2022-12-15T17:16:44.000Z,97516
2022-12-15T17:18:48.000Z,97518
2022-12-15T17:20:12.000Z,97519
2022-12-15T17:22:33.000Z,97519
2022-12-15T17:23:57.000Z,97521
2022-12-15T17:26:01.000Z,97525
2022-12-15T17:27:52.000Z,97527
2022-12-15T17:29:55.000Z,97532
2022-12-15T17:31:20.000Z,97534
2022-12-15T17:33:23.000Z,97534
2022-12-15T17:34:48.000Z,97530
2022-12-15T17:36:51.000Z,97528
2022-12-15T17:39:40.000Z,97530
2022-12-15T17:41:04.000Z,97529
2022-12-15T17:43:08.000Z,97532
2022-12-15T17:44:32.000Z,97537
2022-12-15T17:46:39.000Z,97541
2022-12-15T17:48:03.000Z,97544
2022-12-15T17:50:07.000Z,97542
2022-12-15T17:51:31.000Z,97545
2022-12-15T17:53:35.000Z,97548
2022-12-15T17:55:00.000Z,97548
2022-12-15T17:57:03.000Z,97543
2022-12-15T17:58:27.000Z,97544
2022-12-15T18:00:31.000Z,97540
2022-12-15T18:01:55.000Z,97542
2022-12-15T18:03:59.000Z,97544
2022-12-15T18:05:23.000Z,97543
2022-12-15T18:07:27.000Z,97546
2022-12-15T18:08:51.000Z,97542
2022-12-15T18:10:55.000Z,97542
2022-12-15T18:12:19.000Z,97542
2022-12-15T18:14:23.000Z,97540
2022-12-15T18:17:12.000Z,97534
2022-12-15T18:18:36.000Z,97532
2022-12-15T18:20:40.000Z,97525
2022-12-15T18:22:04.000Z,97526
2022-12-15T18:24:07.000Z,97525
2022-12-15T18:25:32.000Z,97530
2022-12-15T18:27:35.000Z,97535
2022-12-15T18:29:00.000Z,97530
2022-12-15T18:31:03.000Z,97523
2022-12-15T18:32:28.000Z,97520
2022-12-15T18:34:31.000Z,97516
2022-12-15T18:35:56.000Z,97515
2022-12-15T18:37:59.000Z,97519
2022-12-15T18:39:23.000Z,97518
2022-12-15T18:41:27.000Z,97513
2022-12-15T18:42:51.000Z,97517
2022-12-15T18:44:55.000Z,97517
2022-12-15T18:46:19.000Z,97516
2022-12-15T18:48:23.000Z,97522
2022-12-15T18:49:47.000Z,97518
2022-12-15T18:51:51.000Z,97522
2022-12-15T18:54:40.000Z,97521
2022-12-15T18:56:04.000Z,97520
2022-12-15T18:58:07.000Z,97524
2022-12-15T18:59:36.000Z,97526
2022-12-15T19:01:39.000Z,97522
2022-12-15T19:03:04.000Z,97521
2022-12-15T19:05:08.000Z,97515
2022-12-15T19:06:32.000Z,97520
2022-12-15T19:08:36.000Z,97516
2022-12-15T19:10:00.000Z,97519
2022-12-15T19:12:04.000Z,97515
2022-12-15T19:13:28.000Z,97515
2022-12-15T19:15:32.000Z,97514
2022-12-15T19:16:57.000Z,97514
2022-12-15T19:19:00.000Z,97513
2022-12-15T19:20:25.000Z,97513
2022-12-15T19:22:28.000Z,97516
2022-12-15T19:23:53.000Z,97518
2022-12-15T19:25:56.000Z,97516
2022-12-15T19:27:20.000Z,97512
2022-12-15T19:29:24.000Z,97519
2022-12-15T19:32:13.000Z,97511
2022-12-15T19:33:37.000Z,97509
2022-12-15T19:35:41.000Z,97509
2022-12-15T19:37:05.000Z,97510
2022-12-15T19:39:09.000Z,97510
2022-12-15T19:40:33.000Z,97510
2022-12-15T19:42:37.000Z,97508
2022-12-15T19:44:01.000Z,97509
2022-12-15T19:46:04.000Z,97508
2022-12-15T19:47:29.000Z,97508
2022-12-15T19:49:32.000Z,97506
2022-12-15T19:50:57.000Z,97508
2022-12-15T19:53:00.000Z,97514
2022-12-15T19:54:25.000Z,97511
2022-12-15T19:56:28.000Z,97509
2022-12-15T19:57:52.000Z,97508
2022-12-15T19:59:56.000Z,97506
2022-12-15T20:01:20.000Z,97507
2022-12-15T20:03:24.000Z,97503
2022-12-15T20:04:48.000Z,97506
2022-12-15T20:06:52.000Z,97503
2022-12-15T20:09:41.000Z,97505
2022-12-15T20:11:05.000Z,97505
2022-12-15T20:13:09.000Z,97503
2022-12-15T20:14:33.000Z,97501
2022-12-15T20:16:36.000Z,97504
2022-12-15T20:18:01.000Z,97503
2022-12-15T20:20:04.000Z,97499
2022-12-15T20:21:29.000Z,97495
2022-12-15T20:23:32.000Z,97494
2022-12-15T20:24:57.000Z,97492
2022-12-15T20:27:01.000Z,97494
2022-12-15T20:28:25.000Z,97496
2022-12-15T20:30:29.000Z,97489
2022-12-15T20:31:53.000Z,97490
2022-12-15T20:33:56.000Z,97487
2022-12-15T20:35:21.000Z,97484
2022-12-15T20:37:24.000Z,97480
2022-12-15T20:38:49.000Z,97478
2022-12-15T20:40:52.000Z,97477
2022-12-15T20:42:17.000Z,97476
2022-12-15T20:44:20.000Z,97473
2022-12-15T20:47:09.000Z,97473
2022-12-15T20:48:33.000Z,97471
2022-12-15T20:50:37.000Z,97468
2022-12-15T20:52:01.000Z,97473
2022-12-15T20:54:05.000Z,97472
2022-12-15T20:55:29.000Z,97474
2022-12-15T20:57:33.000Z,97473
2022-12-15T20:58:57.000Z,97475
2022-12-15T21:01:00.000Z,97473
2022-12-15T21:02:25.000Z,97475
2022-12-15T21:04:29.000Z,97472
2022-12-15T21:05:53.000Z,97470
2022-12-15T21:07:57.000Z,97469
2022-12-15T21:09:21.000Z,97474
2022-12-15T21:11:24.000Z,97472
2022-12-15T21:12:49.000Z,97474
2022-12-15T21:14:52.000Z,97475
2022-12-15T21:16:17.000Z,97471
2022-12-15T21:18:20.000Z,97472
2022-12-15T21:20:43.000Z,97472
2022-12-15T21:22:46.000Z,97468
2022-12-15T21:25:35.000Z,97468
2022-12-15T21:26:59.000Z,97465
2022-12-15T21:29:03.000Z,97469
2022-12-15T21:30:27.000Z,97469
2022-12-15T21:32:31.000Z,97470
2022-12-15T21:33:55.000Z,97472
2022-12-15T21:35:59.000Z,97476
2022-12-15T21:37:23.000Z,97475
2022-12-15T21:39:27.000Z,97479
2022-12-15T21:40:51.000Z,97482
2022-12-15T21:43:02.000Z,97489
2022-12-15T21:44:27.000Z,97491
2022-12-15T21:46:30.000Z,97498
2022-12-15T21:47:54.000Z,97500
2022-12-15T21:49:58.000Z,97505
2022-12-15T21:51:22.000Z,97509
2022-12-15T21:53:26.000Z,97505
2022-12-15T21:54:50.000Z,97506
2022-12-15T21:56:53.000Z,97504
2022-12-15T21:58:19.000Z,97504
2022-12-15T22:00:22.000Z,97503
2022-12-15T22:03:11.000Z,97506
2022-12-15T22:04:36.000Z,97509
2022-12-15T22:06:39.000Z,97509
2022-12-15T22:08:04.000Z,97507
2022-12-15T22:10:07.000Z,97508
2022-12-15T22:11:32.000Z,97509
2022-12-15T22:13:35.000Z,97510
2022-12-15T22:14:59.000Z,97513
2022-12-15T22:17:03.000Z,97511
2022-12-15T22:18:27.000Z,97510
2022-12-15T22:20:31.000Z,97508
2022-12-15T22:21:55.000Z,97511
2022-12-15T22:23:59.000Z,97516
2022-12-15T22:25:23.000Z,97516
2022-12-15T22:27:27.000Z,97518
2022-12-15T22:28:51.000Z,97518
2022-12-15T22:30:54.000Z,97521
2022-12-15T22:32:19.000Z,97519
2022-12-15T22:34:22.000Z,97523
2022-12-15T22:35:47.000Z,97521
2022-12-15T22:37:50.000Z,97523
2022-12-15T22:40:41.000Z,97516
2022-12-15T22:42:05.000Z,97515
2022-12-15T22:44:08.000Z,97514
2022-12-15T22:45:33.000Z,97515
2022-12-15T22:47:42.000Z,97511
2022-12-15T22:49:07.000Z,97510
2022-12-15T22:51:11.000Z,97512
2022-12-15T22:52:35.000Z,97512
2022-12-15T22:54:39.000Z,97512
2022-12-15T22:56:09.000Z,97511
2022-12-15T22:58:13.000Z,97512
2022-12-15T22:59:37.000Z,97512
2022-12-15T23:01:41.000Z,97513
2022-12-15T23:03:05.000Z,97514
2022-12-15T23:05:09.000Z,97518
2022-12-15T23:06:33.000Z,97515
2022-12-15T23:08:36.000Z,97524